Time;durP1;ratioP1;P1;durP2;ratioP2;P2;SDS_P1;SDS_P2;PMS_P1;PMS_P2;Temp;Humidity;BMP_temperature;BMP_pressure;BME280_temperature;BME280_humidity;BME280_pressure;Samples;Min_cycle;Max_cycle;Signal;HPM_P1;HPM_P2
2021/08/01 00:02:16;;;;;;;;;5.50;4.50;;;;;19.71;52.26;100448.59;5017688;28;45903;-76
2021/08/01 00:04:42;;;;;;;;;6.75;5.75;;;;;19.69;52.38;100445.31;5017590;28;45476;-76
2021/08/01 00:07:07;;;;;;;;;6.00;5.50;;;;;19.68;52.16;100449.78;5017543;28;45664;-76
2021/08/01 00:09:33;;;;;;;;;5.00;4.50;;;;;19.66;52.25;100453.59;5016942;28;47391;-77
2021/08/01 00:11:58;;;;;;;;;5.00;4.75;;;;;19.64;52.50;100455.63;5017462;28;45600;-77
2021/08/01 00:14:23;;;;;;;;;4.75;4.75;;;;;19.62;52.54;100452.28;5017519;28;45667;-75
2021/08/01 00:16:49;;;;;;;;;4.25;4.25;;;;;19.56;52.87;100448.50;5018213;28;45714;-76
2021/08/01 00:19:14;;;;;;;;;5.25;4.75;;;;;19.53;53.03;100453.34;5017165;28;47255;-75
2021/08/01 00:21:39;;;;;;;;;7.50;6.00;;;;;19.50;52.42;100456.31;5017929;28;46505;-74
2021/08/01 00:24:05;;;;;;;;;7.25;6.50;;;;;19.42;53.00;100443.88;5002356;28;45588;-74
2021/08/01 00:26:31;;;;;;;;;5.50;4.75;;;;;19.46;52.79;100457.66;5023006;28;45662;-76
2021/08/01 00:32:17;;;;;;;;;7.00;5.00;;;;;19.31;52.86;100444.22;5022640;28;45734;-76
2021/08/01 00:34:43;;;;;;;;;5.50;5.00;;;;;19.37;52.83;100456.81;5021171;28;45421;-76
2021/08/01 00:37:08;;;;;;;;;5.75;5.50;;;;;19.36;52.85;100459.66;5020541;28;45495;-75
2021/08/01 00:39:34;;;;;;;;;7.00;6.00;;;;;19.29;52.83;100446.19;4999337;28;47701;-77
2021/08/01 00:41:59;;;;;;;;;7.00;6.00;;;;;19.25;53.39;100453.69;5017510;28;45756;-76
2021/08/01 00:47:46;;;;;;;;;4.50;4.50;;;;;19.16;53.62;100441.41;5007503;28;45726;-75
2021/08/01 00:50:13;;;;;;;;;6.75;4.25;;;;;19.28;53.58;100458.66;5017369;28;45536;-75
2021/08/01 00:52:39;;;;;;;;;5.75;5.75;;;;;19.23;53.75;100458.34;5017605;28;45997;-77
2021/08/01 00:55:07;;;;;;;;;5.00;4.50;;;;;19.21;53.70;100455.03;5017201;28;45599;-76
2021/08/01 00:57:33;;;;;;;;;5.50;4.25;;;;;19.18;53.67;100460.66;5016702;28;45586;-77
2021/08/01 00:59:59;;;;;;;;;4.75;4.50;;;;;19.17;53.77;100452.84;5017135;28;46305;-76
2021/08/01 01:02:35;;;;;;;;;5.00;4.25;;;;;19.17;53.30;100461.66;5017238;28;45941;-73
2021/08/01 01:05:05;;;;;;;;;5.25;5.00;;;;;19.13;53.57;100451.53;5017269;28;45810;-75
2021/08/01 01:08:06;;;;;;;;;5.00;5.00;;;;;19.12;53.52;100461.34;5016414;28;45630;-75
2021/08/01 01:10:44;;;;;;;;;5.00;4.25;;;;;19.05;53.74;100449.75;5016910;28;46654;-76
2021/08/01 01:13:12;;;;;;;;;5.00;4.50;;;;;19.06;53.83;100464.66;5016645;28;46641;-76
2021/08/01 01:15:52;;;;;;;;;4.50;3.50;;;;;19.03;54.40;100454.38;5016865;28;45650;-75
2021/08/01 01:18:22;;;;;;;;;4.00;4.00;;;;;18.96;53.81;100448.06;5017341;28;45823;-76
2021/08/01 01:21:06;;;;;;;;;5.75;5.25;;;;;19.02;53.86;100457.19;5017109;28;46417;-77
2021/08/01 01:23:50;;;;;;;;;5.25;5.00;;;;;18.97;53.93;100451.56;5016572;28;45582;-77
2021/08/01 01:26:33;;;;;;;;;5.00;4.00;;;;;18.97;53.99;100463.00;5016550;28;45657;-77
2021/08/01 01:29:23;;;;;;;;;5.50;5.00;;;;;18.95;54.52;100454.38;4998828;28;45603;-74
2021/08/01 01:31:48;;;;;;;;;5.00;5.00;;;;;18.92;54.43;100457.38;5016778;28;46553;-77
2021/08/01 01:34:43;;;;;;;;;7.00;7.00;;;;;18.89;54.67;100454.22;5016725;28;46417;-76
2021/08/01 01:37:11;;;;;;;;;6.50;6.00;;;;;18.91;54.80;100461.00;5022437;28;45828;-75
2021/08/01 01:39:39;;;;;;;;;5.75;5.00;;;;;18.84;54.29;100458.19;5023250;28;45543;-76
2021/08/01 01:42:06;;;;;;;;;4.00;3.00;;;;;18.91;54.69;100462.84;5023514;28;45674;-76
2021/08/01 01:44:35;;;;;;;;;5.25;4.00;;;;;18.86;54.26;100461.53;5022381;28;46334;-75
2021/08/01 01:47:01;;;;;;;;;6.25;5.50;;;;;18.88;54.75;100469.31;5018171;28;46048;-76
2021/08/01 01:49:27;;;;;;;;;4.25;3.25;;;;;18.84;54.78;100463.50;5016529;28;45544;-75
2021/08/01 01:51:54;;;;;;;;;4.50;3.75;;;;;18.85;54.65;100459.84;5016634;28;47357;-75
2021/08/01 01:54:21;;;;;;;;;4.00;3.00;;;;;18.81;54.54;100452.38;5015747;28;46070;-75
2021/08/01 01:56:47;;;;;;;;;3.50;3.50;;;;;18.85;54.41;100464.34;5015865;28;45685;-75
2021/08/01 01:59:12;;;;;;;;;3.50;3.00;;;;;18.82;54.74;100451.41;5015750;28;45856;-75
2021/08/01 02:01:38;;;;;;;;;4.00;4.00;;;;;18.87;54.59;100454.38;5015488;28;46460;-74
2021/08/01 02:04:05;;;;;;;;;3.00;3.00;;;;;18.86;54.59;100453.56;5015240;28;47598;-74
2021/08/01 02:06:30;;;;;;;;;4.00;4.00;;;;;18.87;54.89;100451.72;5016103;28;45753;-73
2021/08/01 02:09:32;;;;;;;;;4.25;3.50;;;;;18.89;54.38;100444.44;5015961;28;45532;-76
2021/08/01 02:12:12;;;;;;;;;4.25;4.00;;;;;18.87;54.73;100449.06;5015965;28;46571;-75
2021/08/01 02:14:49;;;;;;;;;5.00;3.75;;;;;18.88;54.72;100450.75;5015545;28;47141;-76
2021/08/01 02:17:22;;;;;;;;;5.25;4.75;;;;;18.91;54.50;100446.91;4999000;28;45690;-77
2021/08/01 02:19:49;;;;;;;;;3.00;3.00;;;;;18.90;54.36;100438.13;5015741;28;45761;-76
2021/08/01 02:22:17;;;;;;;;;4.00;4.00;;;;;18.87;54.85;100433.16;5016251;28;47358;-78
2021/08/01 02:24:44;;;;;;;;;6.50;5.50;;;;;18.96;54.50;100442.75;5015915;28;46995;-78
2021/08/01 02:27:11;;;;;;;;;5.00;4.50;;;;;18.98;54.44;100442.59;5016465;28;45525;-79
2021/08/01 02:29:37;;;;;;;;;3.25;2.50;;;;;19.01;54.61;100445.75;5016359;28;45889;-76
2021/08/01 02:32:04;;;;;;;;;4.75;4.75;;;;;18.98;54.33;100445.25;5016097;28;46481;-76
2021/08/01 02:34:30;;;;;;;;;4.25;3.00;;;;;18.96;54.94;100441.94;5015610;28;45773;-79
2021/08/01 02:36:57;;;;;;;;;5.00;4.25;;;;;19.00;54.53;100444.06;5016176;28;45643;-79
2021/08/01 02:39:23;;;;;;;;;3.50;3.50;;;;;19.00;54.88;100444.06;5015821;28;45584;-75
2021/08/01 02:41:51;;;;;;;;;4.50;4.50;;;;;18.98;54.95;100442.59;4997624;28;48162;-75
2021/08/01 02:44:37;;;;;;;;;5.50;4.25;;;;;18.96;55.02;100434.78;5015436;28;46527;-76
2021/08/01 02:47:08;;;;;;;;;4.50;3.75;;;;;18.90;55.18;100430.16;5014511;28;45794;-74
2021/08/01 02:49:39;;;;;;;;;4.50;3.75;;;;;18.91;55.01;100428.31;5015130;28;45652;-76
2021/08/01 02:52:07;;;;;;;;;5.00;4.00;;;;;18.81;55.04;100429.34;5015287;28;46502;-75
2021/08/01 02:54:35;;;;;;;;;6.00;4.00;;;;;18.87;54.93;100441.13;5014949;28;46723;-74
2021/08/01 02:57:04;;;;;;;;;5.00;4.25;;;;;18.81;55.30;100436.47;5015075;28;45727;-74
2021/08/01 02:59:30;;;;;;;;;5.00;4.00;;;;;18.81;55.23;100442.59;5015397;28;45924;-74
2021/08/01 03:01:57;;;;;;;;;4.00;4.00;;;;;18.80;55.11;100445.41;5015312;28;46396;-75
2021/08/01 03:04:27;;;;;;;;;5.50;5.00;;;;;18.75;55.50;100453.06;5015115;28;47075;-76
2021/08/01 03:06:53;;;;;;;;;6.50;4.25;;;;;18.67;55.83;100439.78;5015033;28;45620;-77
2021/08/01 03:09:19;;;;;;;;;5.00;4.50;;;;;18.66;55.49;100448.75;5015135;28;45567;-79
2021/08/01 03:11:44;;;;;;;;;5.00;3.75;;;;;18.60;55.62;100450.22;5015010;28;46578;-78
2021/08/01 03:14:12;;;;;;;;;6.00;5.00;;;;;18.57;55.80;100444.44;5014850;28;46239;-75
2021/08/01 03:16:37;;;;;;;;;4.75;4.00;;;;;18.55;56.20;100447.25;5015013;28;45606;-76
2021/08/01 03:19:03;;;;;;;;;5.25;4.00;;;;;18.51;56.26;100453.00;5015409;28;45904;-76
2021/08/01 03:21:28;;;;;;;;;5.00;4.75;;;;;18.49;55.90;100441.72;5015440;28;47288;-75
2021/08/01 03:23:54;;;;;;;;;4.75;4.00;;;;;18.51;56.11;100442.41;5019233;28;46148;-76
2021/08/01 03:26:19;;;;;;;;;4.00;4.00;;;;;18.44;55.57;100434.25;5019746;28;45543;-76
2021/08/01 03:28:44;;;;;;;;;5.00;4.00;;;;;18.46;55.67;100440.25;5019600;28;45666;-75
2021/08/01 03:34:31;;;;;;;;;5.75;3.50;;;;;18.44;55.80;100432.44;5016613;28;45644;-75
2021/08/01 03:36:57;;;;;;;;;3.50;3.00;;;;;18.46;55.67;100441.03;5014887;28;46070;-74
2021/08/01 03:39:22;;;;;;;;;5.00;4.75;;;;;18.48;56.02;100435.59;5014989;28;45746;-78
2021/08/01 03:41:48;;;;;;;;;4.00;3.25;;;;;18.49;55.51;100436.41;5014952;28;46390;-79
2021/08/01 03:44:13;;;;;;;;;5.00;4.00;;;;;18.43;55.54;100430.78;5015146;28;46148;-78
2021/08/01 03:46:39;;;;;;;;;4.25;3.50;;;;;18.47;55.84;100436.56;5015135;28;45571;-78
2021/08/01 03:49:04;;;;;;;;;5.75;4.75;;;;;18.49;55.51;100444.38;5014630;28;45701;-78
2021/08/01 03:51:30;;;;;;;;;4.25;3.00;;;;;18.47;55.50;100441.88;4996930;28;46465;-77
2021/08/01 03:53:55;;;;;;;;;4.75;2.50;;;;;18.46;55.51;100443.69;5014949;28;46100;-78
2021/08/01 03:56:20;;;;;;;;;4.00;3.00;;;;;18.43;56.31;100446.69;5014714;28;45541;-77
2021/08/01 03:58:46;;;;;;;;;2.75;2.50;;;;;18.41;55.49;100443.34;5014397;28;45545;-75
2021/08/01 04:04:33;;;;;;;;;6.00;3.75;;;;;18.37;55.85;100443.84;5013798;28;45875;-75
2021/08/01 04:06:58;;;;;;;;;3.00;3.00;;;;;18.34;56.15;100434.41;5013832;28;45591;-75
2021/08/01 04:09:24;;;;;;;;;4.75;4.00;;;;;18.25;56.34;100430.06;5014365;28;45741;-76
2021/08/01 04:11:49;;;;;;;;;5.75;3.25;;;;;18.26;56.15;100425.59;5013981;28;45604;-77
2021/08/01 04:14:14;;;;;;;;;3.75;3.00;;;;;18.32;55.69;100428.44;4996266;28;45944;-73
2021/08/01 04:16:40;;;;;;;;;4.00;4.00;;;;;18.33;55.95;100431.91;5014243;28;45610;-75
2021/08/01 04:19:13;;;;;;;;;3.50;3.50;;;;;18.30;55.92;100425.09;5013904;28;45599;-74
2021/08/01 04:21:39;;;;;;;;;5.00;4.00;;;;;18.32;56.32;100432.91;5013772;28;46610;-74
2021/08/01 04:24:05;;;;;;;;;4.50;4.50;;;;;18.32;56.46;100432.91;5013403;28;45875;-74
2021/08/01 04:26:30;;;;;;;;;5.75;4.00;;;;;18.30;56.63;100435.72;5013778;28;45503;-77
2021/08/01 04:28:58;;;;;;;;;4.00;3.75;;;;;18.24;56.48;100425.78;5014064;28;45529;-75
2021/08/01 04:34:45;;;;;;;;;5.00;3.75;;;;;18.19;56.44;100437.88;5013443;28;45853;-74
2021/08/01 04:37:10;;;;;;;;;4.00;4.00;;;;;18.18;56.38;100442.34;5013788;28;45554;-75
2021/08/01 04:39:35;;;;;;;;;4.50;3.50;;;;;18.17;56.58;100438.03;5014671;28;45675;-74
2021/08/01 04:42:01;;;;;;;;;4.00;3.75;;;;;18.15;56.67;100436.50;5016212;28;46570;-75
2021/08/01 04:44:26;;;;;;;;;5.00;4.00;;;;;18.13;56.82;100430.56;5017714;28;45654;-75
2021/08/01 04:50:52;;;;;;;;;5.00;4.00;;;;;18.07;57.27;100434.69;5012324;28;45690;-74
2021/08/01 04:53:18;;;;;;;;;3.50;3.00;;;;;17.99;57.42;100429.34;5016961;28;47303;-74
2021/08/01 04:55:43;;;;;;;;;4.00;3.00;;;;;17.98;57.24;100432.97;5016553;28;46160;-75
2021/08/01 04:58:09;;;;;;;;;4.00;3.00;;;;;18.01;57.83;100441.47;5016259;28;45666;-75
2021/08/01 05:00:35;;;;;;;;;3.75;3.00;;;;;17.99;57.55;100446.09;5016562;28;45873;-75
2021/08/01 05:03:02;;;;;;;;;3.50;3.00;;;;;17.97;57.77;100436.66;5017147;28;45881;-76
2021/08/01 05:05:28;;;;;;;;;3.00;3.00;;;;;17.95;57.77;100442.09;5017356;28;47236;-76
2021/08/01 05:07:54;;;;;;;;;4.25;3.00;;;;;17.92;57.63;100433.66;5018078;28;45698;-74
2021/08/01 05:10:19;;;;;;;;;2.75;2.75;;;;;17.93;57.54;100437.94;5018552;28;45730;-76
2021/08/01 05:12:45;;;;;;;;;4.00;3.50;;;;;17.90;58.23;100440.91;5017989;28;46628;-75
2021/08/01 05:15:11;;;;;;;;;5.25;4.25;;;;;17.87;58.62;100435.91;5016982;28;46178;-75
2021/08/01 05:17:36;;;;;;;;;3.00;3.00;;;;;17.83;58.17;100445.19;5018373;28;45768;-76
2021/08/01 05:20:02;;;;;;;;;3.00;2.25;;;;;17.78;58.24;100436.88;5023336;28;45638;-75
2021/08/01 05:22:27;;;;;;;;;5.75;4.00;;;;;17.72;58.70;100438.34;5021920;28;47769;-78
2021/08/01 05:24:53;;;;;;;;;3.50;3.00;;;;;17.65;58.69;100434.69;5021400;28;45680;-77
2021/08/01 05:27:18;;;;;;;;;4.25;4.00;;;;;17.69;58.73;100437.84;5021670;28;45614;-79
2021/08/01 05:29:44;;;;;;;;;4.00;3.00;;;;;17.63;58.57;100430.53;5021291;28;45994;-76
2021/08/01 05:35:31;;;;;;;;;5.75;4.25;;;;;17.67;59.08;100442.47;5016937;28;45990;-75
2021/08/01 05:37:57;;;;;;;;;5.00;4.50;;;;;17.61;58.96;100442.13;5017181;28;45762;-75
2021/08/01 05:40:22;;;;;;;;;5.00;4.25;;;;;17.59;58.97;100441.47;4999474;28;45216;-76
2021/08/01 05:42:47;;;;;;;;;4.25;3.75;;;;;17.58;59.38;100449.53;5016304;28;45659;-75
2021/08/01 05:45:13;;;;;;;;;4.00;3.75;;;;;17.50;59.14;100442.34;5016235;28;46608;-76
2021/08/01 05:47:38;;;;;;;;;3.00;3.00;;;;;17.50;59.38;100445.00;5016122;28;45634;-76
2021/08/01 05:50:04;;;;;;;;;2.75;2.75;;;;;17.52;59.67;100447.50;5016014;28;45737;-75
2021/08/01 05:52:30;;;;;;;;;2.75;2.75;;;;;17.52;59.77;100450.97;5016269;28;45543;-75
2021/08/01 05:54:55;;;;;;;;;3.00;3.00;;;;;17.44;59.27;100447.44;5015840;28;46112;-75
2021/08/01 05:57:20;;;;;;;;;4.00;3.00;;;;;17.50;59.72;100446.81;5015500;28;45626;-75
2021/08/01 05:59:46;;;;;;;;;3.00;3.00;;;;;17.49;59.91;100448.63;5016115;28;45916;-75
2021/08/01 06:05:33;;;;;;;;;5.50;4.00;;;;;17.44;60.03;100458.88;5015902;28;46130;-75
2021/08/01 06:07:58;;;;;;;;;2.50;2.50;;;;;17.43;60.07;100453.75;5015639;28;45584;-75
2021/08/01 06:10:23;;;;;;;;;2.50;2.50;;;;;17.43;60.16;100454.59;4998449;28;45889;-76
2021/08/01 06:12:49;;;;;;;;;9.75;8.50;;;;;17.43;60.13;100451.09;5015736;28;46586;-76
2021/08/01 06:15:14;;;;;;;;;3.75;3.25;;;;;17.45;60.35;100451.75;5016001;28;46195;-76
2021/08/01 06:21:20;;;;;;;;;7.00;6.00;;;;;17.47;60.18;100455.94;5015614;28;45650;-73
2021/08/01 06:23:50;;;;;;;;;5.50;3.25;;;;;17.50;60.76;100460.91;5015902;28;46611;-76
2021/08/01 06:26:18;;;;;;;;;3.75;2.25;;;;;17.54;60.61;100478.13;5016600;28;45681;-74
2021/08/01 06:28:43;;;;;;;;;3.25;2.75;;;;;17.56;60.59;100470.03;4998099;28;45584;-74
2021/08/01 06:31:10;;;;;;;;;4.00;2.50;;;;;17.54;60.54;100462.25;5015970;28;45473;-76
2021/08/01 06:33:35;;;;;;;;;3.25;3.00;;;;;17.57;60.53;100469.06;5015307;28;46579;-75
2021/08/01 06:36:11;;;;;;;;;5.75;3.00;;;;;17.60;60.77;100477.53;5015538;28;45690;-75
2021/08/01 06:38:38;;;;;;;;;3.25;3.00;;;;;17.57;60.49;100469.06;4997892;28;45638;-74
2021/08/01 06:41:04;;;;;;;;;4.25;2.00;;;;;17.63;60.82;100478.22;4997403;28;45920;-74
2021/08/01 06:43:30;;;;;;;;;1.25;1.25;;;;;17.60;60.81;100471.41;5015453;28;47218;-77
2021/08/01 06:45:56;;;;;;;;;3.75;3.00;;;;;17.59;60.45;100465.31;5015150;28;46635;-73
2021/08/01 06:48:22;;;;;;;;;2.75;2.00;;;;;17.69;60.33;100470.47;5015311;28;45607;-76
2021/08/01 06:50:47;;;;;;;;;2.75;2.25;;;;;17.72;60.61;100469.31;5015235;28;45540;-73
2021/08/01 06:53:13;;;;;;;;;2.50;2.00;;;;;17.74;60.15;100478.78;5015617;28;47610;-76
2021/08/01 06:55:38;;;;;;;;;2.75;2.75;;;;;17.80;60.24;100477.31;5015133;28;45587;-74
2021/08/01 06:58:04;;;;;;;;;3.00;2.00;;;;;17.82;60.38;100470.84;5015130;28;45927;-75
2021/08/01 07:00:29;;;;;;;;;3.75;3.00;;;;;17.86;60.57;100482.00;5015634;28;45575;-74
2021/08/01 07:06:16;;;;;;;;;4.75;2.00;;;;;17.93;59.88;100480.34;5015456;28;45918;-77
2021/08/01 07:08:41;;;;;;;;;2.00;2.00;;;;;17.95;60.15;100473.06;5014595;28;45638;-77
2021/08/01 07:11:07;;;;;;;;;3.75;1.75;;;;;17.99;60.23;100480.53;5015290;28;45418;-77
2021/08/01 07:13:32;;;;;;;;;2.25;2.25;;;;;18.01;60.19;100475.09;5014717;28;46537;-76
2021/08/01 07:16:02;;;;;;;;;3.00;3.00;;;;;18.05;59.45;100479.06;5014852;28;46141;-76
2021/08/01 07:21:49;;;;;;;;;3.00;2.50;;;;;18.16;59.31;100494.69;5015842;28;45682;-77
2021/08/01 07:24:14;;;;;;;;;2.50;2.00;;;;;18.18;59.71;100492.72;5015634;28;46673;-79
2021/08/01 07:26:39;;;;;;;;;2.00;1.25;;;;;18.26;59.31;100497.22;5014518;28;46389;-76
2021/08/01 07:29:05;;;;;;;;;3.25;2.25;;;;;18.32;58.92;100501.88;5014847;28;45558;-76
2021/08/01 07:31:31;;;;;;;;;3.50;3.00;;;;;18.28;58.96;100489.94;5014650;28;45855;-77
2021/08/01 07:33:57;;;;;;;;;2.00;2.00;;;;;18.36;59.07;100501.38;5014685;28;46384;-76
2021/08/01 07:36:23;;;;;;;;;3.00;2.00;;;;;18.43;59.32;100506.88;5002554;28;46537;-77
2021/08/01 07:38:48;;;;;;;;;4.75;2.25;;;;;18.48;59.16;100495.78;5020203;28;46235;-76
2021/08/01 07:41:14;;;;;;;;;4.00;2.00;;;;;18.50;58.56;100504.41;5001629;28;46033;-76
2021/08/01 07:43:39;;;;;;;;;3.75;3.75;;;;;18.53;58.62;100501.41;5019987;28;45488;-77
2021/08/01 07:46:05;;;;;;;;;2.25;2.25;;;;;18.58;58.50;100510.59;5000149;28;46353;-76
2021/08/01 07:48:30;;;;;;;;;3.00;3.00;;;;;18.66;58.84;100509.78;5014981;28;45873;-79
2021/08/01 07:50:56;;;;;;;;;2.00;2.00;;;;;18.66;58.80;100504.47;5015026;28;45810;-84
2021/08/01 07:53:22;;;;;;;;;3.00;2.25;;;;;18.73;58.59;100513.44;5016593;28;46868;-80
2021/08/01 07:55:48;;;;;;;;;3.00;2.00;;;;;18.81;58.44;100519.59;5019553;28;45548;-81
2021/08/01 07:58:13;;;;;;;;;1.50;1.50;;;;;18.89;58.06;100523.25;5018857;28;45607;-83
2021/08/01 08:00:39;;;;;;;;;2.75;2.00;;;;;18.82;57.72;100507.97;5016791;28;45496;-82
2021/08/01 08:03:04;;;;;;;;;1.75;1.75;;;;;18.95;57.72;100502.16;5017089;28;45634;-84
2021/08/01 08:05:29;;;;;;;;;0.50;0.50;;;;;19.04;57.52;100524.25;5015276;28;46053;-84
2021/08/01 08:07:55;;;;;;;;;1.25;1.00;;;;;19.07;56.88;100519.44;5014668;28;45684;-84
2021/08/01 08:10:20;;;;;;;;;2.25;1.00;;;;;19.13;57.13;100523.25;5015341;28;45660;-78
2021/08/01 08:12:45;;;;;;;;;1.00;1.00;;;;;19.17;56.87;100522.75;5014925;28;45630;-83
2021/08/01 08:15:12;;;;;;;;;1.25;1.25;;;;;19.17;56.36;100516.59;5014821;28;45753;-80
2021/08/01 08:17:38;;;;;;;;;1.50;0.50;;;;;19.27;56.13;100520.75;5021926;28;45663;-83
2021/08/01 08:20:06;;;;;;;;;0.00;0.00;;;;;19.33;56.13;100542.34;5026087;28;45486;-79
2021/08/01 08:22:32;;;;;;;;;0.75;0.75;;;;;19.35;55.00;100535.03;5021968;28;47322;-83
2021/08/01 08:24:57;;;;;;;;;1.50;1.00;;;;;19.37;55.28;100533.88;5026993;28;46102;-80
2021/08/01 08:27:23;;;;;;;;;0.75;0.50;;;;;19.40;54.82;100532.69;5028457;28;45581;-81
2021/08/01 08:29:48;;;;;;;;;1.00;0.50;;;;;19.26;54.31;100510.31;5008872;28;45590;-79
2021/08/01 08:32:13;;;;;;;;;0.50;0.50;;;;;19.40;54.14;100538.84;5024321;28;45486;-78
2021/08/01 08:34:39;;;;;;;;;0.00;0.00;;;;;19.37;54.16;100522.41;5020606;28;45894;-80
2021/08/01 08:37:04;;;;;;;;;0.75;0.75;;;;;19.45;54.15;100531.22;5019682;28;45511;-82
2021/08/01 08:39:30;;;;;;;;;1.75;1.75;;;;;19.48;53.87;100546.03;5020945;28;45995;-81
2021/08/01 08:41:59;;;;;;;;;1.75;1.00;;;;;19.49;54.19;100529.06;5021553;28;45710;-80
2021/08/01 08:44:26;;;;;;;;;4.50;4.25;;;;;19.51;54.46;100535.06;5025007;28;45689;-82
2021/08/01 08:46:53;;;;;;;;;6.75;5.75;;;;;19.49;54.44;100531.72;5001469;28;45560;-77
2021/08/01 08:53:02;;;;;;;;;5.75;5.50;;;;;19.53;54.94;100525.91;5008929;28;45809;-77
2021/08/01 08:55:32;;;;;;;;;4.25;4.00;;;;;19.54;54.52;100519.59;5017831;28;46198;-78
2021/08/01 08:58:02;;;;;;;;;2.50;2.00;;;;;19.61;54.92;100525.06;5017537;28;45548;-78
2021/08/01 09:00:28;;;;;;;;;4.25;4.25;;;;;19.64;54.90;100528.22;5017515;28;45766;-78
2021/08/01 09:02:54;;;;;;;;;4.25;2.25;;;;;19.67;54.35;100535.84;5016955;28;46521;-78
2021/08/01 09:05:20;;;;;;;;;2.00;2.00;;;;;19.67;54.83;100532.34;5016760;28;46153;-79
2021/08/01 09:07:46;;;;;;;;;1.75;1.00;;;;;19.72;54.28;100542.47;5017328;28;45668;-80
2021/08/01 09:10:11;;;;;;;;;2.25;1.50;;;;;19.73;54.04;100534.34;5017279;28;45750;-80
2021/08/01 09:12:55;;;;;;;;;2.75;1.75;;;;;19.83;53.76;100539.47;5017146;28;45591;-79
2021/08/01 09:15:28;;;;;;;;;2.25;1.25;;;;;19.85;53.79;100542.78;5018184;28;46127;-78
2021/08/01 09:17:55;;;;;;;;;2.00;2.00;;;;;19.83;53.27;100537.63;5017827;28;45512;-79
2021/08/01 09:20:24;;;;;;;;;2.25;1.75;;;;;19.91;53.61;100560.72;5018340;28;45666;-79
2021/08/01 09:22:59;;;;;;;;;3.00;1.25;;;;;19.93;53.16;100556.06;5018911;28;46559;-78
2021/08/01 09:25:27;;;;;;;;;2.00;1.75;;;;;19.94;53.33;100542.59;5017138;28;45986;-79
2021/08/01 09:28:25;;;;;;;;;2.00;2.00;;;;;19.97;53.13;100542.25;5016793;28;45672;-79
2021/08/01 09:30:55;;;;;;;;;2.00;2.00;;;;;20.02;52.84;100547.06;5018015;28;45595;-79
2021/08/01 09:33:35;;;;;;;;;2.75;1.25;;;;;20.06;52.61;100546.56;5016939;28;45597;-79
2021/08/01 09:36:08;;;;;;;;;2.25;2.00;;;;;20.12;52.78;100542.38;5016711;28;45883;-80
2021/08/01 09:38:52;;;;;;;;;1.00;1.00;;;;;20.18;52.50;100543.53;5016883;28;45753;-80
2021/08/01 09:41:20;;;;;;;;;1.00;1.00;;;;;20.21;52.58;100538.66;5016904;28;45520;-80
2021/08/01 09:43:48;;;;;;;;;1.25;1.25;;;;;20.26;52.50;100551.44;5018519;28;45520;-78
2021/08/01 09:46:14;;;;;;;;;1.00;1.00;;;;;20.27;52.35;100534.50;5019427;28;45633;-79
2021/08/01 09:48:40;;;;;;;;;3.00;2.00;;;;;20.35;52.20;100543.28;5019362;28;45574;-79
2021/08/01 09:51:08;;;;;;;;;2.25;2.00;;;;;20.32;51.86;100543.66;5018637;28;45552;-79
2021/08/01 09:53:35;;;;;;;;;0.75;0.75;;;;;20.35;51.91;100550.47;5018707;28;45544;-78
2021/08/01 09:56:21;;;;;;;;;1.25;1.00;;;;;20.30;51.57;100537.63;5018726;28;46170;-79
2021/08/01 09:58:48;;;;;;;;;1.50;1.50;;;;;20.35;51.31;100539.81;5016738;28;45726;-80
2021/08/01 10:01:15;;;;;;;;;1.50;1.50;;;;;20.32;51.75;100529.50;5017941;28;45497;-83
2021/08/01 10:03:45;;;;;;;;;2.25;1.50;;;;;20.34;51.47;100532.84;5018555;28;46370;-78
2021/08/01 10:06:17;;;;;;;;;1.75;1.00;;;;;20.36;51.40;100525.50;5017320;28;46180;-79
2021/08/01 10:08:48;;;;;;;;;1.00;1.00;;;;;20.42;51.36;100525.63;5017026;28;45678;-82
2021/08/01 10:11:22;;;;;;;;;2.50;2.00;;;;;20.40;51.38;100519.66;5021350;28;45956;-78
2021/08/01 10:13:50;;;;;;;;;2.75;2.00;;;;;20.50;51.38;100532.75;5020287;28;45806;-79
2021/08/01 10:16:16;;;;;;;;;1.25;1.00;;;;;20.55;51.26;100533.06;5016257;28;46413;-79
2021/08/01 10:18:44;;;;;;;;;1.25;1.00;;;;;20.59;50.75;100536.19;5015973;28;45478;-80
2021/08/01 10:21:15;;;;;;;;;1.50;0.00;;;;;20.60;49.44;100537.84;4998529;28;45828;-80
2021/08/01 10:23:45;;;;;;;;;1.00;0.00;;;;;20.52;49.60;100515.59;5016303;28;45635;-78
2021/08/01 10:26:13;;;;;;;;;0.00;0.00;;;;;20.58;49.39;100521.22;5015499;28;46497;-77
2021/08/01 10:28:54;;;;;;;;;0.75;0.75;;;;;20.62;49.31;100525.19;5015764;28;45662;-77
2021/08/01 10:31:29;;;;;;;;;0.00;0.00;;;;;20.64;49.00;100513.34;5015059;28;45778;-80
2021/08/01 10:34:07;;;;;;;;;0.50;0.50;;;;;20.69;48.77;100516.31;5015254;28;46458;-80
2021/08/01 10:36:35;;;;;;;;;0.00;0.00;;;;;20.64;49.17;100489.38;5015544;28;46265;-76
2021/08/01 10:39:06;;;;;;;;;1.00;1.00;;;;;20.82;49.17;100508.56;5015119;28;45680;-78
2021/08/01 10:41:34;;;;;;;;;1.00;0.50;;;;;20.88;48.91;100507.03;5017387;28;45575;-80
2021/08/01 10:44:08;;;;;;;;;0.25;0.25;;;;;20.94;49.03;100515.13;5017013;28;45495;-78
2021/08/01 10:46:36;;;;;;;;;0.00;0.00;;;;;21.01;48.53;100506.41;5017878;28;46233;-79
2021/08/01 10:49:03;;;;;;;;;0.75;0.75;;;;;21.07;48.50;100503.88;5019411;28;45512;-77
2021/08/01 10:51:30;;;;;;;;;2.00;1.00;;;;;21.13;48.81;100508.50;5000267;28;45558;-81
2021/08/01 10:54:21;;;;;;;;;0.00;0.00;;;;;21.19;48.40;100510.47;5017931;28;45815;-73
2021/08/01 10:56:47;;;;;;;;;1.00;0.00;;;;;21.18;47.90;100498.16;5019070;28;45587;-77
2021/08/01 10:59:45;;;;;;;;;0.25;0.25;;;;;21.27;47.69;100501.56;5017887;28;45511;-82
2021/08/01 11:02:17;;;;;;;;;0.00;0.00;;;;;21.36;47.78;100505.81;4934584;28;45738;-82
2021/08/01 11:04:45;;;;;;;;;1.00;1.00;;;;;21.42;47.55;100491.78;4935060;28;45571;-83
2021/08/01 11:07:26;;;;;;;;;0.75;0.50;;;;;21.49;46.58;100498.00;4934909;28;47571;-82
2021/08/01 11:10:07;;;;;;;;;1.00;0.00;;;;;21.60;47.29;100494.06;4935571;28;45651;-82
2021/08/01 11:12:34;;;;;;;;;0.00;0.00;;;;;21.62;46.80;100484.88;4935011;28;45680;-83
2021/08/01 11:15:08;;;;;;;;;0.00;0.00;;;;;21.68;46.70;100491.31;4934832;28;46597;-73
2021/08/01 11:17:43;;;;;;;;;0.00;0.00;;;;;21.72;45.72;100496.09;4934554;28;46470;-75
2021/08/01 11:20:23;;;;;;;;;0.00;0.00;;;;;21.75;45.68;100502.94;4934219;28;45714;-77
2021/08/01 11:22:53;;;;;;;;;0.00;0.00;;;;;21.77;45.40;100493.72;4938342;28;45524;-82
2021/08/01 11:25:44;;;;;;;;;0.00;0.00;;;;;21.80;45.73;100471.19;4937413;28;46674;-81
2021/08/01 11:28:10;;;;;;;;;0.00;0.00;;;;;21.87;45.61;100481.91;4935766;28;46417;-82
2021/08/01 11:31:10;;;;;;;;;0.50;0.50;;;;;21.91;45.09;100500.06;4934908;28;45767;-81
2021/08/01 11:33:40;;;;;;;;;0.00;0.00;;;;;21.93;44.94;100489.19;4858990;29;45538;-80
2021/08/01 11:36:12;;;;;;;;;1.00;0.00;;;;;21.94;44.68;100490.84;4858522;29;46981;-77
2021/08/01 11:38:39;;;;;;;;;0.00;0.00;;;;;21.93;44.33;100479.34;4922553;28;45857;-79
2021/08/01 11:41:05;;;;;;;;;0.00;0.00;;;;;21.77;44.65;100450.19;4934215;28;45995;-75
2021/08/01 11:43:32;;;;;;;;;0.00;0.00;;;;;21.92;44.32;100474.19;4934346;28;45972;-80
2021/08/01 11:46:06;;;;;;;;;0.00;0.00;;;;;21.99;44.52;100485.81;4934257;28;45671;-80
2021/08/01 11:48:33;;;;;;;;;0.75;0.00;;;;;22.03;43.92;100474.56;4934248;28;46355;-81
2021/08/01 11:51:05;;;;;;;;;1.00;0.00;;;;;22.09;44.11;100473.00;4933804;28;45685;-75
2021/08/01 11:53:31;;;;;;;;;0.00;0.00;;;;;22.12;44.02;100468.16;4933748;28;45867;-79
2021/08/01 11:56:00;;;;;;;;;1.00;0.50;;;;;22.17;44.38;100472.91;4934061;28;46980;-80
2021/08/01 11:58:29;;;;;;;;;0.00;0.00;;;;;22.25;43.78;100466.63;4936089;28;47187;-81
2021/08/01 12:00:55;;;;;;;;;0.50;0.00;;;;;22.30;43.76;100473.06;4936645;28;45729;-78
2021/08/01 12:03:27;;;;;;;;;0.00;0.00;;;;;22.33;43.33;100472.69;4935537;28;45728;-76
2021/08/01 12:05:52;;;;;;;;;0.25;0.00;;;;;22.34;43.00;100469.00;4933630;28;46914;-80
2021/08/01 12:08:47;;;;;;;;;0.75;0.75;;;;;22.37;43.37;100476.63;4945451;28;46213;-85
2021/08/01 12:11:17;;;;;;;;;1.00;1.00;;;;;22.39;42.98;100463.94;4933772;28;45876;-79
2021/08/01 12:14:04;;;;;;;;;0.25;0.00;;;;;22.40;43.47;100460.22;4934321;28;45558;-75